sensor_id;sensor_type;location;lat;lon;timestamp;P1;durP1;ratioP1;P2;durP2;ratioP2
55493;SDS011;41355;50.390;19.096;2023-05-27T00:02:02;7.05;;;2.30;;
55493;SDS011;41355;50.390;19.096;2023-05-27T00:04:28;8.32;;;2.88;;
55493;SDS011;41355;50.390;19.096;2023-05-27T00:06:54;14.13;;;3.33;;
55493;SDS011;41355;50.390;19.096;2023-05-27T00:09:20;7.03;;;2.55;;
55493;SDS011;41355;50.390;19.096;2023-05-27T00:11:46;12.27;;;3.30;;
55493;SDS011;41355;50.390;19.096;2023-05-27T00:14:12;11.90;;;4.13;;
55493;SDS011;41355;50.390;19.096;2023-05-27T00:16:38;9.05;;;3.10;;
55493;SDS011;41355;50.390;19.096;2023-05-27T00:19:04;8.48;;;2.35;;
55493;SDS011;41355;50.390;19.096;2023-05-27T00:21:31;12.88;;;3.05;;
55493;SDS011;41355;50.390;19.096;2023-05-27T00:23:57;12.10;;;3.65;;
55493;SDS011;41355;50.390;19.096;2023-05-27T00:26:23;17.65;;;3.83;;
55493;SDS011;41355;50.390;19.096;2023-05-27T00:28:49;12.55;;;4.15;;
55493;SDS011;41355;50.390;19.096;2023-05-27T00:31:15;10.57;;;2.72;;
55493;SDS011;41355;50.390;19.096;2023-05-27T00:33:41;8.23;;;3.03;;
55493;SDS011;41355;50.390;19.096;2023-05-27T00:36:08;12.63;;;2.78;;
55493;SDS011;41355;50.390;19.096;2023-05-27T00:38:34;12.13;;;3.72;;
55493;SDS011;41355;50.390;19.096;2023-05-27T00:41:01;9.60;;;3.20;;
55493;SDS011;41355;50.390;19.096;2023-05-27T00:43:28;11.25;;;3.75;;
55493;SDS011;41355;50.390;19.096;2023-05-27T00:45:55;11.27;;;2.97;;
55493;SDS011;41355;50.390;19.096;2023-05-27T00:48:21;13.10;;;3.65;;
55493;SDS011;41355;50.390;19.096;2023-05-27T00:50:48;12.25;;;3.72;;
55493;SDS011;41355;50.390;19.096;2023-05-27T00:53:15;9.20;;;3.75;;
55493;SDS011;41355;50.390;19.096;2023-05-27T00:55:42;12.73;;;4.22;;
55493;SDS011;41355;50.390;19.096;2023-05-27T00:58:08;9.90;;;3.15;;
55493;SDS011;41355;50.390;19.096;2023-05-27T01:00:35;9.23;;;3.38;;
55493;SDS011;41355;50.390;19.096;2023-05-27T01:03:04;12.13;;;3.38;;
55493;SDS011;41355;50.390;19.096;2023-05-27T01:05:31;16.30;;;3.95;;
55493;SDS011;41355;50.390;19.096;2023-05-27T01:10:45;9.90;;;4.57;;
55493;SDS011;41355;50.390;19.096;2023-05-27T01:15:51;14.10;;;4.28;;
55493;SDS011;41355;50.390;19.096;2023-05-27T01:18:19;14.93;;;4.18;;
55493;SDS011;41355;50.390;19.096;2023-05-27T01:20:49;13.55;;;4.72;;
55493;SDS011;41355;50.390;19.096;2023-05-27T01:23:16;17.30;;;3.47;;
55493;SDS011;41355;50.390;19.096;2023-05-27T01:25:42;12.23;;;3.20;;
55493;SDS011;41355;50.390;19.096;2023-05-27T01:28:09;14.30;;;4.15;;
55493;SDS011;41355;50.390;19.096;2023-05-27T01:30:35;9.60;;;3.53;;
55493;SDS011;41355;50.390;19.096;2023-05-27T01:33:08;11.13;;;3.45;;
55493;SDS011;41355;50.390;19.096;2023-05-27T01:35:42;10.40;;;3.03;;
55493;SDS011;41355;50.390;19.096;2023-05-27T01:38:12;14.05;;;3.22;;
55493;SDS011;41355;50.390;19.096;2023-05-27T01:40:38;11.60;;;3.75;;
55493;SDS011;41355;50.390;19.096;2023-05-27T01:43:05;10.85;;;3.65;;
55493;SDS011;41355;50.390;19.096;2023-05-27T01:45:31;10.57;;;3.25;;
55493;SDS011;41355;50.390;19.096;2023-05-27T01:47:58;10.50;;;3.38;;
55493;SDS011;41355;50.390;19.096;2023-05-27T01:50:24;19.67;;;4.97;;
55493;SDS011;41355;50.390;19.096;2023-05-27T01:52:50;13.55;;;4.15;;
55493;SDS011;41355;50.390;19.096;2023-05-27T01:55:16;14.48;;;3.38;;
55493;SDS011;41355;50.390;19.096;2023-05-27T01:57:42;15.35;;;3.50;;
55493;SDS011;41355;50.390;19.096;2023-05-27T02:00:09;8.38;;;2.70;;
55493;SDS011;41355;50.390;19.096;2023-05-27T02:02:35;15.68;;;3.83;;
55493;SDS011;41355;50.390;19.096;2023-05-27T02:05:01;12.35;;;3.20;;
55493;SDS011;41355;50.390;19.096;2023-05-27T02:07:27;9.35;;;3.10;;
55493;SDS011;41355;50.390;19.096;2023-05-27T02:09:53;12.25;;;3.97;;
55493;SDS011;41355;50.390;19.096;2023-05-27T02:12:20;13.73;;;3.42;;
55493;SDS011;41355;50.390;19.096;2023-05-27T02:14:46;10.48;;;3.08;;
55493;SDS011;41355;50.390;19.096;2023-05-27T02:17:13;14.88;;;3.28;;
55493;SDS011;41355;50.390;19.096;2023-05-27T02:19:40;13.38;;;3.55;;
55493;SDS011;41355;50.390;19.096;2023-05-27T02:22:06;11.23;;;3.10;;
55493;SDS011;41355;50.390;19.096;2023-05-27T02:24:32;13.77;;;3.67;;
55493;SDS011;41355;50.390;19.096;2023-05-27T02:26:58;25.00;;;4.65;;
55493;SDS011;41355;50.390;19.096;2023-05-27T02:29:24;10.85;;;3.50;;
55493;SDS011;41355;50.390;19.096;2023-05-27T02:31:50;11.35;;;2.83;;
55493;SDS011;41355;50.390;19.096;2023-05-27T02:34:16;12.07;;;4.25;;
55493;SDS011;41355;50.390;19.096;2023-05-27T02:36:42;21.52;;;4.20;;
55493;SDS011;41355;50.390;19.096;2023-05-27T02:39:08;13.50;;;3.92;;
55493;SDS011;41355;50.390;19.096;2023-05-27T02:41:35;14.00;;;3.72;;
55493;SDS011;41355;50.390;19.096;2023-05-27T02:44:01;8.45;;;3.45;;
55493;SDS011;41355;50.390;19.096;2023-05-27T02:46:27;14.02;;;3.75;;
55493;SDS011;41355;50.390;19.096;2023-05-27T02:48:54;14.10;;;4.20;;
55493;SDS011;41355;50.390;19.096;2023-05-27T02:51:21;14.40;;;4.18;;
55493;SDS011;41355;50.390;19.096;2023-05-27T02:53:47;22.88;;;4.10;;
55493;SDS011;41355;50.390;19.096;2023-05-27T02:56:13;17.75;;;4.57;;
55493;SDS011;41355;50.390;19.096;2023-05-27T02:58:39;14.38;;;3.47;;
55493;SDS011;41355;50.390;19.096;2023-05-27T03:01:05;13.95;;;3.67;;
55493;SDS011;41355;50.390;19.096;2023-05-27T03:03:31;8.60;;;2.83;;
55493;SDS011;41355;50.390;19.096;2023-05-27T03:05:57;9.48;;;2.85;;
55493;SDS011;41355;50.390;19.096;2023-05-27T03:08:23;10.50;;;2.92;;
55493;SDS011;41355;50.390;19.096;2023-05-27T03:10:49;15.93;;;3.08;;
55493;SDS011;41355;50.390;19.096;2023-05-27T03:13:15;12.30;;;3.58;;
55493;SDS011;41355;50.390;19.096;2023-05-27T03:15:42;13.63;;;3.70;;
55493;SDS011;41355;50.390;19.096;2023-05-27T03:18:07;15.75;;;3.80;;
55493;SDS011;41355;50.390;19.096;2023-05-27T03:20:33;14.35;;;3.88;;
55493;SDS011;41355;50.390;19.096;2023-05-27T03:23:00;14.45;;;3.67;;
55493;SDS011;41355;50.390;19.096;2023-05-27T03:25:26;15.45;;;4.28;;
55493;SDS011;41355;50.390;19.096;2023-05-27T03:27:53;14.35;;;3.53;;
55493;SDS011;41355;50.390;19.096;2023-05-27T03:30:19;12.35;;;3.55;;
55493;SDS011;41355;50.390;19.096;2023-05-27T03:32:46;12.52;;;3.53;;
55493;SDS011;41355;50.390;19.096;2023-05-27T03:35:12;21.52;;;4.22;;
55493;SDS011;41355;50.390;19.096;2023-05-27T03:37:38;12.63;;;3.70;;
55493;SDS011;41355;50.390;19.096;2023-05-27T03:40:04;12.48;;;3.92;;
55493;SDS011;41355;50.390;19.096;2023-05-27T03:42:30;12.35;;;2.85;;
55493;SDS011;41355;50.390;19.096;2023-05-27T03:44:57;12.55;;;2.95;;
55493;SDS011;41355;50.390;19.096;2023-05-27T03:47:23;16.17;;;3.53;;
55493;SDS011;41355;50.390;19.096;2023-05-27T03:49:49;14.93;;;4.00;;
55493;SDS011;41355;50.390;19.096;2023-05-27T03:52:15;10.90;;;3.00;;
55493;SDS011;41355;50.390;19.096;2023-05-27T03:54:41;15.07;;;3.33;;
55493;SDS011;41355;50.390;19.096;2023-05-27T03:57:07;18.95;;;3.80;;
55493;SDS011;41355;50.390;19.096;2023-05-27T03:59:33;16.15;;;4.07;;
55493;SDS011;41355;50.390;19.096;2023-05-27T04:01:59;8.65;;;2.95;;
55493;SDS011;41355;50.390;19.096;2023-05-27T04:04:25;17.60;;;4.00;;
55493;SDS011;41355;50.390;19.096;2023-05-27T04:06:51;11.60;;;2.92;;
55493;SDS011;41355;50.390;19.096;2023-05-27T04:09:18;20.92;;;3.13;;
55493;SDS011;41355;50.390;19.096;2023-05-27T04:11:44;10.07;;;2.55;;
55493;SDS011;41355;50.390;19.096;2023-05-27T04:14:10;12.32;;;3.67;;
55493;SDS011;41355;50.390;19.096;2023-05-27T04:16:37;13.63;;;2.88;;
55493;SDS011;41355;50.390;19.096;2023-05-27T04:19:06;8.40;;;2.83;;
55493;SDS011;41355;50.390;19.096;2023-05-27T04:21:32;12.52;;;3.22;;
55493;SDS011;41355;50.390;19.096;2023-05-27T04:23:58;11.55;;;3.10;;
55493;SDS011;41355;50.390;19.096;2023-05-27T04:26:24;17.48;;;3.25;;
55493;SDS011;41355;50.390;19.096;2023-05-27T04:28:51;11.40;;;3.13;;
55493;SDS011;41355;50.390;19.096;2023-05-27T04:31:17;11.82;;;2.75;;
55493;SDS011;41355;50.390;19.096;2023-05-27T04:33:43;10.52;;;2.90;;
55493;SDS011;41355;50.390;19.096;2023-05-27T04:36:10;11.93;;;3.25;;
55493;SDS011;41355;50.390;19.096;2023-05-27T04:38:36;15.07;;;3.17;;
55493;SDS011;41355;50.390;19.096;2023-05-27T04:41:02;20.58;;;3.35;;
55493;SDS011;41355;50.390;19.096;2023-05-27T04:43:29;13.68;;;2.35;;
55493;SDS011;41355;50.390;19.096;2023-05-27T04:45:56;13.55;;;2.97;;
55493;SDS011;41355;50.390;19.096;2023-05-27T04:48:24;8.80;;;2.65;;
55493;SDS011;41355;50.390;19.096;2023-05-27T04:50:51;15.55;;;3.50;;
55493;SDS011;41355;50.390;19.096;2023-05-27T04:53:21;9.25;;;3.15;;
55493;SDS011;41355;50.390;19.096;2023-05-27T04:55:48;10.88;;;2.95;;
55493;SDS011;41355;50.390;19.096;2023-05-27T04:58:14;9.43;;;2.15;;
55493;SDS011;41355;50.390;19.096;2023-05-27T05:00:40;13.98;;;3.05;;
55493;SDS011;41355;50.390;19.096;2023-05-27T05:03:12;7.13;;;1.85;;
55493;SDS011;41355;50.390;19.096;2023-05-27T05:05:46;16.45;;;3.25;;
55493;SDS011;41355;50.390;19.096;2023-05-27T05:08:12;12.30;;;2.70;;
55493;SDS011;41355;50.390;19.096;2023-05-27T05:10:38;14.68;;;3.58;;
55493;SDS011;41355;50.390;19.096;2023-05-27T05:13:04;13.10;;;3.15;;
55493;SDS011;41355;50.390;19.096;2023-05-27T05:15:30;10.23;;;2.55;;
55493;SDS011;41355;50.390;19.096;2023-05-27T05:17:56;13.73;;;3.53;;
55493;SDS011;41355;50.390;19.096;2023-05-27T05:20:22;12.40;;;3.22;;
55493;SDS011;41355;50.390;19.096;2023-05-27T05:22:48;14.20;;;3.13;;
55493;SDS011;41355;50.390;19.096;2023-05-27T05:25:15;13.75;;;3.15;;
55493;SDS011;41355;50.390;19.096;2023-05-27T05:27:41;10.88;;;2.70;;
55493;SDS011;41355;50.390;19.096;2023-05-27T05:30:07;12.27;;;2.80;;
55493;SDS011;41355;50.390;19.096;2023-05-27T05:32:33;10.00;;;2.72;;
55493;SDS011;41355;50.390;19.096;2023-05-27T05:34:59;10.40;;;3.15;;
55493;SDS011;41355;50.390;19.096;2023-05-27T05:37:25;14.63;;;3.15;;
55493;SDS011;41355;50.390;19.096;2023-05-27T05:39:53;9.88;;;2.30;;
55493;SDS011;41355;50.390;19.096;2023-05-27T05:42:20;11.48;;;2.88;;
55493;SDS011;41355;50.390;19.096;2023-05-27T05:44:47;11.05;;;2.72;;
55493;SDS011;41355;50.390;19.096;2023-05-27T05:47:12;9.85;;;2.47;;
55493;SDS011;41355;50.390;19.096;2023-05-27T05:49:39;13.88;;;2.97;;
55493;SDS011;41355;50.390;19.096;2023-05-27T05:52:05;10.45;;;2.70;;
55493;SDS011;41355;50.390;19.096;2023-05-27T05:54:31;14.57;;;3.75;;
55493;SDS011;41355;50.390;19.096;2023-05-27T05:56:57;12.70;;;2.80;;
55493;SDS011;41355;50.390;19.096;2023-05-27T05:59:23;13.75;;;2.90;;
55493;SDS011;41355;50.390;19.096;2023-05-27T06:01:49;10.57;;;2.85;;
55493;SDS011;41355;50.390;19.096;2023-05-27T06:04:15;11.90;;;3.05;;
55493;SDS011;41355;50.390;19.096;2023-05-27T06:06:42;13.00;;;2.70;;
55493;SDS011;41355;50.390;19.096;2023-05-27T06:09:08;13.75;;;2.75;;
55493;SDS011;41355;50.390;19.096;2023-05-27T06:11:34;11.07;;;2.67;;
55493;SDS011;41355;50.390;19.096;2023-05-27T06:14:00;11.23;;;2.65;;
55493;SDS011;41355;50.390;19.096;2023-05-27T06:16:26;12.80;;;2.97;;
55493;SDS011;41355;50.390;19.096;2023-05-27T06:18:53;11.45;;;3.63;;
55493;SDS011;41355;50.390;19.096;2023-05-27T06:21:19;15.40;;;3.55;;
55493;SDS011;41355;50.390;19.096;2023-05-27T06:23:45;15.27;;;2.90;;
55493;SDS011;41355;50.390;19.096;2023-05-27T06:26:12;15.65;;;4.05;;
55493;SDS011;41355;50.390;19.096;2023-05-27T06:28:38;8.18;;;2.47;;
55493;SDS011;41355;50.390;19.096;2023-05-27T06:31:04;13.93;;;4.15;;
55493;SDS011;41355;50.390;19.096;2023-05-27T06:33:30;9.38;;;3.00;;
55493;SDS011;41355;50.390;19.096;2023-05-27T06:35:56;12.70;;;3.35;;
55493;SDS011;41355;50.390;19.096;2023-05-27T06:38:22;10.30;;;2.47;;
55493;SDS011;41355;50.390;19.096;2023-05-27T06:40:48;10.40;;;3.08;;
55493;SDS011;41355;50.390;19.096;2023-05-27T06:43:14;15.65;;;3.13;;
55493;SDS011;41355;50.390;19.096;2023-05-27T06:45:40;10.52;;;2.58;;
55493;SDS011;41355;50.390;19.096;2023-05-27T06:48:06;10.80;;;2.40;;
55493;SDS011;41355;50.390;19.096;2023-05-27T06:50:33;11.50;;;2.90;;
55493;SDS011;41355;50.390;19.096;2023-05-27T06:52:59;9.30;;;2.47;;
55493;SDS011;41355;50.390;19.096;2023-05-27T06:55:25;10.10;;;2.20;;
55493;SDS011;41355;50.390;19.096;2023-05-27T06:57:51;9.18;;;2.25;;
55493;SDS011;41355;50.390;19.096;2023-05-27T07:00:17;8.90;;;2.40;;
55493;SDS011;41355;50.390;19.096;2023-05-27T07:02:43;11.18;;;3.10;;
55493;SDS011;41355;50.390;19.096;2023-05-27T07:05:09;15.90;;;2.75;;
55493;SDS011;41355;50.390;19.096;2023-05-27T07:07:35;12.00;;;2.50;;
55493;SDS011;41355;50.390;19.096;2023-05-27T07:10:01;9.00;;;2.65;;
55493;SDS011;41355;50.390;19.096;2023-05-27T07:12:27;8.63;;;1.85;;
55493;SDS011;41355;50.390;19.096;2023-05-27T07:14:53;8.63;;;2.35;;
55493;SDS011;41355;50.390;19.096;2023-05-27T07:17:19;8.20;;;2.17;;
55493;SDS011;41355;50.390;19.096;2023-05-27T07:19:45;10.80;;;2.78;;
55493;SDS011;41355;50.390;19.096;2023-05-27T07:22:11;14.32;;;2.20;;
55493;SDS011;41355;50.390;19.096;2023-05-27T07:24:37;9.15;;;2.58;;
55493;SDS011;41355;50.390;19.096;2023-05-27T07:27:04;10.25;;;2.53;;
55493;SDS011;41355;50.390;19.096;2023-05-27T07:29:30;11.30;;;2.58;;
55493;SDS011;41355;50.390;19.096;2023-05-27T07:31:57;9.88;;;2.75;;
55493;SDS011;41355;50.390;19.096;2023-05-27T07:34:23;9.10;;;2.15;;
55493;SDS011;41355;50.390;19.096;2023-05-27T07:36:49;5.68;;;1.95;;
55493;SDS011;41355;50.390;19.096;2023-05-27T07:39:15;11.10;;;2.55;;
55493;SDS011;41355;50.390;19.096;2023-05-27T07:41:41;13.18;;;2.60;;
55493;SDS011;41355;50.390;19.096;2023-05-27T07:44:07;12.68;;;2.50;;
55493;SDS011;41355;50.390;19.096;2023-05-27T07:46:33;7.32;;;1.88;;
55493;SDS011;41355;50.390;19.096;2023-05-27T07:48:59;11.02;;;2.50;;
55493;SDS011;41355;50.390;19.096;2023-05-27T07:51:25;9.40;;;2.50;;
55493;SDS011;41355;50.390;19.096;2023-05-27T07:53:51;8.55;;;2.45;;
55493;SDS011;41355;50.390;19.096;2023-05-27T07:56:17;11.57;;;2.50;;
55493;SDS011;41355;50.390;19.096;2023-05-27T07:58:43;8.15;;;2.20;;
55493;SDS011;41355;50.390;19.096;2023-05-27T08:01:09;8.40;;;1.90;;
55493;SDS011;41355;50.390;19.096;2023-05-27T08:03:35;3.40;;;1.27;;
55493;SDS011;41355;50.390;19.096;2023-05-27T08:06:01;8.70;;;2.33;;
55493;SDS011;41355;50.390;19.096;2023-05-27T08:08:27;7.50;;;2.45;;
55493;SDS011;41355;50.390;19.096;2023-05-27T08:10:53;14.93;;;2.65;;
55493;SDS011;41355;50.390;19.096;2023-05-27T08:13:20;8.07;;;1.52;;
55493;SDS011;41355;50.390;19.096;2023-05-27T08:15:46;10.50;;;2.13;;
55493;SDS011;41355;50.390;19.096;2023-05-27T08:18:12;8.07;;;2.22;;
55493;SDS011;41355;50.390;19.096;2023-05-27T08:20:38;10.07;;;2.40;;
55493;SDS011;41355;50.390;19.096;2023-05-27T08:23:04;7.82;;;1.48;;
55493;SDS011;41355;50.390;19.096;2023-05-27T08:25:30;11.65;;;2.50;;
55493;SDS011;41355;50.390;19.096;2023-05-27T08:27:56;8.23;;;2.20;;
55493;SDS011;41355;50.390;19.096;2023-05-27T08:30:27;6.03;;;1.85;;
55493;SDS011;41355;50.390;19.096;2023-05-27T08:32:53;8.23;;;2.17;;
55493;SDS011;41355;50.390;19.096;2023-05-27T08:35:20;8.82;;;2.40;;
55493;SDS011;41355;50.390;19.096;2023-05-27T08:37:46;9.18;;;2.22;;
55493;SDS011;41355;50.390;19.096;2023-05-27T08:40:13;10.60;;;2.05;;
55493;SDS011;41355;50.390;19.096;2023-05-27T08:42:39;11.52;;;2.83;;
55493;SDS011;41355;50.390;19.096;2023-05-27T08:45:06;9.98;;;2.50;;
55493;SDS011;41355;50.390;19.096;2023-05-27T08:47:32;9.10;;;2.05;;
55493;SDS011;41355;50.390;19.096;2023-05-27T08:49:58;10.70;;;2.50;;
55493;SDS011;41355;50.390;19.096;2023-05-27T08:52:27;9.80;;;2.63;;
55493;SDS011;41355;50.390;19.096;2023-05-27T08:54:54;8.35;;;1.80;;
55493;SDS011;41355;50.390;19.096;2023-05-27T08:57:21;10.45;;;2.25;;
55493;SDS011;41355;50.390;19.096;2023-05-27T08:59:49;8.27;;;2.35;;
55493;SDS011;41355;50.390;19.096;2023-05-27T09:02:15;12.20;;;2.60;;
55493;SDS011;41355;50.390;19.096;2023-05-27T09:04:44;13.15;;;2.55;;
55493;SDS011;41355;50.390;19.096;2023-05-27T09:07:11;10.35;;;1.88;;
55493;SDS011;41355;50.390;19.096;2023-05-27T09:09:38;8.02;;;2.22;;
55493;SDS011;41355;50.390;19.096;2023-05-27T09:12:04;9.98;;;2.08;;
55493;SDS011;41355;50.390;19.096;2023-05-27T09:14:34;4.32;;;1.52;;
55493;SDS011;41355;50.390;19.096;2023-05-27T09:17:06;9.55;;;2.33;;
55493;SDS011;41355;50.390;19.096;2023-05-27T09:19:33;6.20;;;2.08;;
55493;SDS011;41355;50.390;19.096;2023-05-27T09:21:59;9.82;;;2.10;;
55493;SDS011;41355;50.390;19.096;2023-05-27T09:24:26;17.50;;;2.67;;
55493;SDS011;41355;50.390;19.096;2023-05-27T09:26:53;7.97;;;2.13;;
55493;SDS011;41355;50.390;19.096;2023-05-27T09:29:23;10.80;;;2.33;;
55493;SDS011;41355;50.390;19.096;2023-05-27T09:31:53;8.88;;;2.33;;
55493;SDS011;41355;50.390;19.096;2023-05-27T09:34:19;9.77;;;2.20;;
55493;SDS011;41355;50.390;19.096;2023-05-27T09:36:46;9.73;;;2.63;;
55493;SDS011;41355;50.390;19.096;2023-05-27T09:39:13;8.48;;;2.38;;
55493;SDS011;41355;50.390;19.096;2023-05-27T09:41:40;9.98;;;2.70;;
55493;SDS011;41355;50.390;19.096;2023-05-27T09:44:06;7.07;;;2.00;;
55493;SDS011;41355;50.390;19.096;2023-05-27T09:46:32;7.40;;;1.88;;
55493;SDS011;41355;50.390;19.096;2023-05-27T09:48:59;8.68;;;2.03;;
55493;SDS011;41355;50.390;19.096;2023-05-27T09:51:28;8.93;;;1.92;;
55493;SDS011;41355;50.390;19.096;2023-05-27T09:53:54;6.57;;;1.90;;
55493;SDS011;41355;50.390;19.096;2023-05-27T09:56:27;11.43;;;1.88;;
55493;SDS011;41355;50.390;19.096;2023-05-27T09:58:56;6.22;;;2.17;;
55493;SDS011;41355;50.390;19.096;2023-05-27T10:01:27;7.80;;;1.73;;
55493;SDS011;41355;50.390;19.096;2023-05-27T10:03:54;6.95;;;1.52;;
55493;SDS011;41355;50.390;19.096;2023-05-27T10:06:23;9.48;;;2.10;;
55493;SDS011;41355;50.390;19.096;2023-05-27T10:08:51;5.90;;;1.52;;
55493;SDS011;41355;50.390;19.096;2023-05-27T10:11:23;4.50;;;1.48;;
55493;SDS011;41355;50.390;19.096;2023-05-27T10:13:51;6.85;;;1.70;;
55493;SDS011;41355;50.390;19.096;2023-05-27T10:16:20;6.15;;;1.73;;
55493;SDS011;41355;50.390;19.096;2023-05-27T10:18:47;6.88;;;1.90;;
55493;SDS011;41355;50.390;19.096;2023-05-27T10:21:18;7.82;;;1.52;;
55493;SDS011;41355;50.390;19.096;2023-05-27T10:24:01;7.15;;;1.92;;
55493;SDS011;41355;50.390;19.096;2023-05-27T10:26:35;6.70;;;1.80;;
55493;SDS011;41355;50.390;19.096;2023-05-27T10:29:12;7.20;;;2.20;;
55493;SDS011;41355;50.390;19.096;2023-05-27T10:31:45;7.13;;;2.10;;
55493;SDS011;41355;50.390;19.096;2023-05-27T10:36:37;5.72;;;2.20;;
55493;SDS011;41355;50.390;19.096;2023-05-27T10:39:17;5.28;;;1.88;;
55493;SDS011;41355;50.390;19.096;2023-05-27T10:41:44;6.65;;;2.05;;
55493;SDS011;41355;50.390;19.096;2023-05-27T10:44:24;6.80;;;2.35;;
55493;SDS011;41355;50.390;19.096;2023-05-27T10:46:58;9.18;;;2.10;;
55493;SDS011;41355;50.390;19.096;2023-05-27T10:51:50;5.90;;;2.03;;
55493;SDS011;41355;50.390;19.096;2023-05-27T10:54:17;5.03;;;1.80;;
55493;SDS011;41355;50.390;19.096;2023-05-27T10:56:50;5.97;;;1.75;;
55493;SDS011;41355;50.390;19.096;2023-05-27T10:59:20;7.22;;;2.05;;
55493;SDS011;41355;50.390;19.096;2023-05-27T11:01:48;6.03;;;2.10;;
55493;SDS011;41355;50.390;19.096;2023-05-27T11:04:16;6.53;;;2.10;;
55493;SDS011;41355;50.390;19.096;2023-05-27T11:06:42;4.80;;;1.80;;
55493;SDS011;41355;50.390;19.096;2023-05-27T11:09:08;7.45;;;2.10;;
55493;SDS011;41355;50.390;19.096;2023-05-27T11:11:35;4.47;;;2.03;;
55493;SDS011;41355;50.390;19.096;2023-05-27T11:14:02;4.70;;;1.92;;
55493;SDS011;41355;50.390;19.096;2023-05-27T11:16:28;8.38;;;2.80;;
55493;SDS011;41355;50.390;19.096;2023-05-27T11:18:54;6.93;;;2.40;;
55493;SDS011;41355;50.390;19.096;2023-05-27T11:21:20;8.27;;;2.80;;
55493;SDS011;41355;50.390;19.096;2023-05-27T11:23:47;5.22;;;2.00;;
55493;SDS011;41355;50.390;19.096;2023-05-27T11:26:17;6.72;;;2.60;;
55493;SDS011;41355;50.390;19.096;2023-05-27T11:29:01;7.03;;;2.17;;
55493;SDS011;41355;50.390;19.096;2023-05-27T11:31:30;7.55;;;2.60;;
55493;SDS011;41355;50.390;19.096;2023-05-27T11:33:56;7.25;;;2.47;;
55493;SDS011;41355;50.390;19.096;2023-05-27T11:36:26;7.35;;;2.50;;
55493;SDS011;41355;50.390;19.096;2023-05-27T11:38:57;9.45;;;3.80;;
55493;SDS011;41355;50.390;19.096;2023-05-27T11:41:24;5.75;;;2.20;;
55493;SDS011;41355;50.390;19.096;2023-05-27T11:44:03;6.75;;;2.47;;
55493;SDS011;41355;50.390;19.096;2023-05-27T11:46:33;9.43;;;2.97;;
55493;SDS011;41355;50.390;19.096;2023-05-27T11:49:00;5.63;;;1.50;;
55493;SDS011;41355;50.390;19.096;2023-05-27T11:51:27;8.45;;;1.95;;
55493;SDS011;41355;50.390;19.096;2023-05-27T11:53:54;5.85;;;1.95;;
55493;SDS011;41355;50.390;19.096;2023-05-27T11:56:20;4.55;;;1.83;;
55493;SDS011;41355;50.390;19.096;2023-05-27T11:58:46;10.25;;;2.05;;
55493;SDS011;41355;50.390;19.096;2023-05-27T12:01:12;8.13;;;1.90;;
55493;SDS011;41355;50.390;19.096;2023-05-27T12:03:38;7.78;;;2.20;;
55493;SDS011;41355;50.390;19.096;2023-05-27T12:06:06;5.90;;;1.67;;
55493;SDS011;41355;50.390;19.096;2023-05-27T12:08:32;6.93;;;2.00;;
55493;SDS011;41355;50.390;19.096;2023-05-27T12:10:58;6.07;;;2.40;;
55493;SDS011;41355;50.390;19.096;2023-05-27T12:13:30;8.85;;;1.80;;
55493;SDS011;41355;50.390;19.096;2023-05-27T12:16:15;4.67;;;1.67;;
55493;SDS011;41355;50.390;19.096;2023-05-27T12:18:41;5.82;;;2.20;;
55493;SDS011;41355;50.390;19.096;2023-05-27T12:21:08;4.57;;;1.63;;
55493;SDS011;41355;50.390;19.096;2023-05-27T12:23:34;6.53;;;2.08;;
55493;SDS011;41355;50.390;19.096;2023-05-27T12:26:00;4.78;;;1.50;;
55493;SDS011;41355;50.390;19.096;2023-05-27T12:28:26;5.35;;;1.95;;
55493;SDS011;41355;50.390;19.096;2023-05-27T12:30:52;7.28;;;2.00;;
55493;SDS011;41355;50.390;19.096;2023-05-27T12:33:18;6.75;;;1.73;;
55493;SDS011;41355;50.390;19.096;2023-05-27T12:35:44;6.50;;;1.90;;
55493;SDS011;41355;50.390;19.096;2023-05-27T12:38:10;4.82;;;1.80;;
55493;SDS011;41355;50.390;19.096;2023-05-27T12:40:36;6.22;;;1.75;;
55493;SDS011;41355;50.390;19.096;2023-05-27T12:43:03;5.28;;;1.90;;
55493;SDS011;41355;50.390;19.096;2023-05-27T12:45:29;7.40;;;1.90;;
55493;SDS011;41355;50.390;19.096;2023-05-27T12:47:55;5.05;;;1.98;;
55493;SDS011;41355;50.390;19.096;2023-05-27T12:50:21;4.82;;;1.70;;
55493;SDS011;41355;50.390;19.096;2023-05-27T12:52:48;5.95;;;1.50;;
55493;SDS011;41355;50.390;19.096;2023-05-27T12:55:16;4.30;;;1.67;;
55493;SDS011;41355;50.390;19.096;2023-05-27T12:57:43;4.60;;;1.58;;
55493;SDS011;41355;50.390;19.096;2023-05-27T13:00:10;7.80;;;2.42;;
55493;SDS011;41355;50.390;19.096;2023-05-27T13:02:37;4.68;;;1.83;;
55493;SDS011;41355;50.390;19.096;2023-05-27T13:05:03;6.65;;;1.80;;
55493;SDS011;41355;50.390;19.096;2023-05-27T13:07:31;5.43;;;1.67;;
55493;SDS011;41355;50.390;19.096;2023-05-27T13:10:00;5.18;;;1.63;;
55493;SDS011;41355;50.390;19.096;2023-05-27T13:12:26;4.95;;;1.48;;
55493;SDS011;41355;50.390;19.096;2023-05-27T13:14:52;5.10;;;1.50;;
55493;SDS011;41355;50.390;19.096;2023-05-27T13:17:18;4.22;;;1.65;;
55493;SDS011;41355;50.390;19.096;2023-05-27T13:19:44;5.28;;;1.60;;
55493;SDS011;41355;50.390;19.096;2023-05-27T13:22:11;5.45;;;1.63;;
55493;SDS011;41355;50.390;19.096;2023-05-27T13:24:39;3.85;;;1.33;;
55493;SDS011;41355;50.390;19.096;2023-05-27T13:27:05;4.78;;;1.58;;
55493;SDS011;41355;50.390;19.096;2023-05-27T13:29:32;6.40;;;1.58;;
55493;SDS011;41355;50.390;19.096;2023-05-27T13:31:58;5.75;;;1.55;;
55493;SDS011;41355;50.390;19.096;2023-05-27T13:34:24;5.93;;;1.48;;
55493;SDS011;41355;50.390;19.096;2023-05-27T13:36:52;6.70;;;1.48;;
55493;SDS011;41355;50.390;19.096;2023-05-27T13:39:18;4.70;;;1.60;;
55493;SDS011;41355;50.390;19.096;2023-05-27T13:41:44;4.32;;;1.45;;
55493;SDS011;41355;50.390;19.096;2023-05-27T13:44:10;5.95;;;1.77;;
55493;SDS011;41355;50.390;19.096;2023-05-27T13:46:36;5.38;;;1.83;;
55493;SDS011;41355;50.390;19.096;2023-05-27T13:49:03;4.43;;;1.50;;
55493;SDS011;41355;50.390;19.096;2023-05-27T13:51:30;4.97;;;1.38;;
55493;SDS011;41355;50.390;19.096;2023-05-27T13:53:57;6.05;;;1.40;;
55493;SDS011;41355;50.390;19.096;2023-05-27T13:56:23;4.45;;;1.30;;
55493;SDS011;41355;50.390;19.096;2023-05-27T13:58:51;5.13;;;1.58;;
55493;SDS011;41355;50.390;19.096;2023-05-27T14:01:17;5.13;;;1.65;;
55493;SDS011;41355;50.390;19.096;2023-05-27T14:03:44;3.63;;;1.60;;
55493;SDS011;41355;50.390;19.096;2023-05-27T14:06:10;4.43;;;1.30;;
55493;SDS011;41355;50.390;19.096;2023-05-27T14:08:36;5.07;;;1.38;;
55493;SDS011;41355;50.390;19.096;2023-05-27T14:11:03;8.05;;;1.75;;
55493;SDS011;41355;50.390;19.096;2023-05-27T14:13:29;6.45;;;1.75;;
55493;SDS011;41355;50.390;19.096;2023-05-27T14:15:55;5.10;;;1.80;;
55493;SDS011;41355;50.390;19.096;2023-05-27T14:18:21;7.00;;;1.60;;
55493;SDS011;41355;50.390;19.096;2023-05-27T14:20:48;5.60;;;1.60;;
55493;SDS011;41355;50.390;19.096;2023-05-27T14:23:14;4.18;;;1.20;;
55493;SDS011;41355;50.390;19.096;2023-05-27T14:25:41;4.28;;;1.60;;
55493;SDS011;41355;50.390;19.096;2023-05-27T14:28:07;3.80;;;1.50;;
55493;SDS011;41355;50.390;19.096;2023-05-27T14:30:33;5.57;;;1.58;;
55493;SDS011;41355;50.390;19.096;2023-05-27T14:33:02;4.80;;;1.40;;
55493;SDS011;41355;50.390;19.096;2023-05-27T14:35:31;7.50;;;1.70;;
55493;SDS011;41355;50.390;19.096;2023-05-27T14:37:57;7.70;;;2.70;;